sensor_id;sensor_type;location;lat;lon;timestamp;P1;durP1;ratioP1;P2;durP2;ratioP2
5026;SDS011;2532;52.480;13.354;2022-12-11T00:00:48;21.90;;;11.20;;
5026;SDS011;2532;52.480;13.354;2022-12-11T00:03:16;22.43;;;11.33;;
5026;SDS011;2532;52.480;13.354;2022-12-11T00:05:44;20.90;;;12.80;;
5026;SDS011;2532;52.480;13.354;2022-12-11T00:08:12;21.37;;;10.87;;
5026;SDS011;2532;52.480;13.354;2022-12-11T00:10:45;23.43;;;12.80;;
5026;SDS011;2532;52.480;13.354;2022-12-11T00:13:14;22.07;;;11.90;;
5026;SDS011;2532;52.480;13.354;2022-12-11T00:15:41;23.00;;;13.10;;
5026;SDS011;2532;52.480;13.354;2022-12-11T00:18:08;24.13;;;14.20;;
5026;SDS011;2532;52.480;13.354;2022-12-11T00:20:38;24.37;;;12.97;;
5026;SDS011;2532;52.480;13.354;2022-12-11T00:23:05;22.10;;;13.00;;
5026;SDS011;2532;52.480;13.354;2022-12-11T00:25:33;24.27;;;12.37;;
5026;SDS011;2532;52.480;13.354;2022-12-11T00:28:00;22.37;;;12.73;;
5026;SDS011;2532;52.480;13.354;2022-12-11T00:30:28;26.83;;;13.27;;
5026;SDS011;2532;52.480;13.354;2022-12-11T00:32:55;24.80;;;13.53;;
5026;SDS011;2532;52.480;13.354;2022-12-11T00:35:25;23.97;;;11.03;;
5026;SDS011;2532;52.480;13.354;2022-12-11T00:37:52;22.93;;;11.63;;
5026;SDS011;2532;52.480;13.354;2022-12-11T00:40:19;20.00;;;13.57;;
5026;SDS011;2532;52.480;13.354;2022-12-11T00:42:47;22.00;;;13.90;;
5026;SDS011;2532;52.480;13.354;2022-12-11T00:45:14;26.10;;;12.57;;
5026;SDS011;2532;52.480;13.354;2022-12-11T00:47:41;28.67;;;15.60;;
5026;SDS011;2532;52.480;13.354;2022-12-11T00:50:08;20.90;;;11.33;;
5026;SDS011;2532;52.480;13.354;2022-12-11T00:52:36;19.70;;;10.60;;
5026;SDS011;2532;52.480;13.354;2022-12-11T00:55:03;21.73;;;10.80;;
5026;SDS011;2532;52.480;13.354;2022-12-11T00:57:31;21.83;;;11.53;;
5026;SDS011;2532;52.480;13.354;2022-12-11T00:59:59;28.10;;;14.27;;
5026;SDS011;2532;52.480;13.354;2022-12-11T01:02:26;21.33;;;11.53;;
5026;SDS011;2532;52.480;13.354;2022-12-11T01:04:53;24.47;;;13.77;;
5026;SDS011;2532;52.480;13.354;2022-12-11T01:07:20;28.50;;;16.70;;
5026;SDS011;2532;52.480;13.354;2022-12-11T01:09:47;26.03;;;11.33;;
5026;SDS011;2532;52.480;13.354;2022-12-11T01:12:31;19.63;;;11.53;;
5026;SDS011;2532;52.480;13.354;2022-12-11T01:14:59;22.17;;;11.77;;
5026;SDS011;2532;52.480;13.354;2022-12-11T01:17:26;22.33;;;14.50;;
5026;SDS011;2532;52.480;13.354;2022-12-11T01:19:53;22.90;;;12.80;;
5026;SDS011;2532;52.480;13.354;2022-12-11T01:22:21;25.03;;;16.03;;
5026;SDS011;2532;52.480;13.354;2022-12-11T01:24:52;28.47;;;16.60;;
5026;SDS011;2532;52.480;13.354;2022-12-11T01:27:18;24.73;;;12.77;;
5026;SDS011;2532;52.480;13.354;2022-12-11T01:29:45;25.87;;;14.70;;
5026;SDS011;2532;52.480;13.354;2022-12-11T01:32:15;26.20;;;16.10;;
5026;SDS011;2532;52.480;13.354;2022-12-11T01:34:41;24.53;;;15.20;;
5026;SDS011;2532;52.480;13.354;2022-12-11T01:37:09;26.53;;;16.47;;
5026;SDS011;2532;52.480;13.354;2022-12-11T01:39:36;28.37;;;14.40;;
5026;SDS011;2532;52.480;13.354;2022-12-11T01:42:05;25.80;;;14.67;;
5026;SDS011;2532;52.480;13.354;2022-12-11T01:47:52;28.60;;;16.03;;
5026;SDS011;2532;52.480;13.354;2022-12-11T01:50:22;26.20;;;15.20;;
5026;SDS011;2532;52.480;13.354;2022-12-11T01:52:49;26.43;;;13.70;;
5026;SDS011;2532;52.480;13.354;2022-12-11T01:55:17;27.70;;;15.63;;
5026;SDS011;2532;52.480;13.354;2022-12-11T01:57:46;28.30;;;16.20;;
5026;SDS011;2532;52.480;13.354;2022-12-11T02:00:16;30.00;;;16.03;;
5026;SDS011;2532;52.480;13.354;2022-12-11T02:02:43;30.07;;;17.60;;
5026;SDS011;2532;52.480;13.354;2022-12-11T02:05:12;28.90;;;16.40;;
5026;SDS011;2532;52.480;13.354;2022-12-11T02:07:43;28.13;;;16.53;;
5026;SDS011;2532;52.480;13.354;2022-12-11T02:10:14;31.63;;;15.90;;
5026;SDS011;2532;52.480;13.354;2022-12-11T02:12:44;31.30;;;17.40;;
5026;SDS011;2532;52.480;13.354;2022-12-11T02:15:20;31.47;;;17.50;;
5026;SDS011;2532;52.480;13.354;2022-12-11T02:17:53;29.30;;;16.47;;
5026;SDS011;2532;52.480;13.354;2022-12-11T02:20:29;28.13;;;15.73;;
5026;SDS011;2532;52.480;13.354;2022-12-11T02:23:09;30.17;;;16.97;;
5026;SDS011;2532;52.480;13.354;2022-12-11T02:26:01;26.83;;;15.53;;
5026;SDS011;2532;52.480;13.354;2022-12-11T02:28:42;28.03;;;16.83;;
5026;SDS011;2532;52.480;13.354;2022-12-11T02:31:20;28.20;;;16.73;;
5026;SDS011;2532;52.480;13.354;2022-12-11T02:33:49;33.70;;;18.10;;
5026;SDS011;2532;52.480;13.354;2022-12-11T02:36:20;28.03;;;17.17;;
5026;SDS011;2532;52.480;13.354;2022-12-11T02:38:50;32.10;;;16.87;;
5026;SDS011;2532;52.480;13.354;2022-12-11T02:41:20;26.60;;;15.50;;
5026;SDS011;2532;52.480;13.354;2022-12-11T02:43:53;34.00;;;16.70;;
5026;SDS011;2532;52.480;13.354;2022-12-11T02:46:22;30.20;;;18.53;;
5026;SDS011;2532;52.480;13.354;2022-12-11T02:48:51;28.47;;;16.40;;
5026;SDS011;2532;52.480;13.354;2022-12-11T02:51:21;29.20;;;16.90;;
5026;SDS011;2532;52.480;13.354;2022-12-11T02:53:52;27.40;;;16.30;;
5026;SDS011;2532;52.480;13.354;2022-12-11T02:56:24;26.67;;;15.97;;
5026;SDS011;2532;52.480;13.354;2022-12-11T02:59:02;26.60;;;15.60;;
5026;SDS011;2532;52.480;13.354;2022-12-11T03:01:36;34.20;;;18.47;;
5026;SDS011;2532;52.480;13.354;2022-12-11T03:04:06;31.37;;;18.47;;
5026;SDS011;2532;52.480;13.354;2022-12-11T03:06:34;29.50;;;14.60;;
5026;SDS011;2532;52.480;13.354;2022-12-11T03:09:07;39.17;;;17.63;;
5026;SDS011;2532;52.480;13.354;2022-12-11T03:11:38;29.60;;;16.87;;
5026;SDS011;2532;52.480;13.354;2022-12-11T03:14:09;29.80;;;14.80;;
5026;SDS011;2532;52.480;13.354;2022-12-11T03:16:40;32.50;;;18.10;;
5026;SDS011;2532;52.480;13.354;2022-12-11T03:19:16;27.30;;;16.03;;
5026;SDS011;2532;52.480;13.354;2022-12-11T03:21:50;27.10;;;16.27;;
5026;SDS011;2532;52.480;13.354;2022-12-11T03:24:21;32.63;;;18.70;;
5026;SDS011;2532;52.480;13.354;2022-12-11T03:26:56;29.43;;;15.57;;
5026;SDS011;2532;52.480;13.354;2022-12-11T03:29:29;29.90;;;17.07;;
5026;SDS011;2532;52.480;13.354;2022-12-11T03:32:01;28.70;;;18.30;;
5026;SDS011;2532;52.480;13.354;2022-12-11T03:34:36;38.57;;;18.37;;
5026;SDS011;2532;52.480;13.354;2022-12-11T03:37:10;32.77;;;16.97;;
5026;SDS011;2532;52.480;13.354;2022-12-11T03:39:43;34.53;;;18.20;;
5026;SDS011;2532;52.480;13.354;2022-12-11T03:42:14;30.77;;;17.93;;
5026;SDS011;2532;52.480;13.354;2022-12-11T03:44:45;31.23;;;18.20;;
5026;SDS011;2532;52.480;13.354;2022-12-11T03:47:14;33.30;;;18.53;;
5026;SDS011;2532;52.480;13.354;2022-12-11T03:49:44;31.20;;;17.17;;
5026;SDS011;2532;52.480;13.354;2022-12-11T03:52:14;29.97;;;17.73;;
5026;SDS011;2532;52.480;13.354;2022-12-11T03:54:44;28.50;;;17.27;;
5026;SDS011;2532;52.480;13.354;2022-12-11T03:57:15;30.77;;;16.13;;
5026;SDS011;2532;52.480;13.354;2022-12-11T03:59:48;32.33;;;17.33;;
5026;SDS011;2532;52.480;13.354;2022-12-11T04:02:15;31.60;;;18.10;;
5026;SDS011;2532;52.480;13.354;2022-12-11T04:04:42;32.97;;;15.90;;
5026;SDS011;2532;52.480;13.354;2022-12-11T04:07:11;27.33;;;14.93;;
5026;SDS011;2532;52.480;13.354;2022-12-11T04:09:38;34.57;;;19.60;;
5026;SDS011;2532;52.480;13.354;2022-12-11T04:12:05;28.50;;;15.83;;
5026;SDS011;2532;52.480;13.354;2022-12-11T04:14:32;33.77;;;18.17;;
5026;SDS011;2532;52.480;13.354;2022-12-11T04:17:18;32.83;;;18.20;;
5026;SDS011;2532;52.480;13.354;2022-12-11T04:19:59;32.30;;;18.23;;
5026;SDS011;2532;52.480;13.354;2022-12-11T04:22:43;40.03;;;18.80;;
5026;SDS011;2532;52.480;13.354;2022-12-11T04:25:27;29.77;;;16.93;;
5026;SDS011;2532;52.480;13.354;2022-12-11T04:27:54;33.30;;;17.97;;
5026;SDS011;2532;52.480;13.354;2022-12-11T04:30:22;33.30;;;17.63;;
5026;SDS011;2532;52.480;13.354;2022-12-11T04:32:52;30.67;;;18.30;;
5026;SDS011;2532;52.480;13.354;2022-12-11T04:35:20;32.40;;;18.67;;
5026;SDS011;2532;52.480;13.354;2022-12-11T04:37:47;29.87;;;17.27;;
5026;SDS011;2532;52.480;13.354;2022-12-11T04:40:16;30.70;;;17.30;;
5026;SDS011;2532;52.480;13.354;2022-12-11T04:42:46;33.50;;;18.00;;
5026;SDS011;2532;52.480;13.354;2022-12-11T04:45:13;33.70;;;18.03;;
5026;SDS011;2532;52.480;13.354;2022-12-11T04:47:40;32.27;;;17.93;;
5026;SDS011;2532;52.480;13.354;2022-12-11T04:50:09;28.60;;;17.57;;
5026;SDS011;2532;52.480;13.354;2022-12-11T04:52:40;32.47;;;17.93;;
5026;SDS011;2532;52.480;13.354;2022-12-11T04:55:07;34.57;;;17.87;;
5026;SDS011;2532;52.480;13.354;2022-12-11T04:57:35;28.90;;;16.80;;
5026;SDS011;2532;52.480;13.354;2022-12-11T05:00:02;29.93;;;16.80;;
5026;SDS011;2532;52.480;13.354;2022-12-11T05:02:32;28.53;;;15.10;;
5026;SDS011;2532;52.480;13.354;2022-12-11T05:05:01;29.10;;;17.90;;
5026;SDS011;2532;52.480;13.354;2022-12-11T05:07:30;31.83;;;17.63;;
5026;SDS011;2532;52.480;13.354;2022-12-11T05:09:57;27.43;;;16.10;;
5026;SDS011;2532;52.480;13.354;2022-12-11T05:12:24;33.00;;;18.30;;
5026;SDS011;2532;52.480;13.354;2022-12-11T05:14:51;30.23;;;16.33;;
5026;SDS011;2532;52.480;13.354;2022-12-11T05:17:18;33.10;;;16.70;;
5026;SDS011;2532;52.480;13.354;2022-12-11T05:19:46;30.83;;;17.17;;
5026;SDS011;2532;52.480;13.354;2022-12-11T05:22:13;29.47;;;16.73;;
5026;SDS011;2532;52.480;13.354;2022-12-11T05:24:42;33.43;;;17.33;;
5026;SDS011;2532;52.480;13.354;2022-12-11T05:27:09;33.37;;;17.30;;
5026;SDS011;2532;52.480;13.354;2022-12-11T05:29:36;25.50;;;14.10;;
5026;SDS011;2532;52.480;13.354;2022-12-11T05:32:03;30.07;;;17.73;;
5026;SDS011;2532;52.480;13.354;2022-12-11T05:34:30;32.20;;;17.87;;
5026;SDS011;2532;52.480;13.354;2022-12-11T05:36:58;32.07;;;16.90;;
5026;SDS011;2532;52.480;13.354;2022-12-11T05:39:25;27.53;;;14.50;;
5026;SDS011;2532;52.480;13.354;2022-12-11T05:41:53;32.87;;;17.43;;
5026;SDS011;2532;52.480;13.354;2022-12-11T05:44:23;33.27;;;18.33;;
5026;SDS011;2532;52.480;13.354;2022-12-11T05:46:51;33.40;;;17.60;;
5026;SDS011;2532;52.480;13.354;2022-12-11T05:49:18;32.97;;;17.80;;
5026;SDS011;2532;52.480;13.354;2022-12-11T05:51:44;34.13;;;19.03;;
5026;SDS011;2532;52.480;13.354;2022-12-11T05:54:12;37.20;;;20.80;;
5026;SDS011;2532;52.480;13.354;2022-12-11T05:56:39;34.70;;;18.00;;
5026;SDS011;2532;52.480;13.354;2022-12-11T05:59:07;29.00;;;16.80;;
5026;SDS011;2532;52.480;13.354;2022-12-11T06:01:35;40.63;;;18.87;;
5026;SDS011;2532;52.480;13.354;2022-12-11T06:04:09;31.97;;;18.33;;
5026;SDS011;2532;52.480;13.354;2022-12-11T06:06:53;32.43;;;18.43;;
5026;SDS011;2532;52.480;13.354;2022-12-11T06:09:20;30.20;;;14.83;;
5026;SDS011;2532;52.480;13.354;2022-12-11T06:11:47;33.43;;;17.90;;
5026;SDS011;2532;52.480;13.354;2022-12-11T06:14:15;34.60;;;18.40;;
5026;SDS011;2532;52.480;13.354;2022-12-11T06:16:45;32.70;;;18.33;;
5026;SDS011;2532;52.480;13.354;2022-12-11T06:19:12;33.10;;;18.10;;
5026;SDS011;2532;52.480;13.354;2022-12-11T06:21:41;30.47;;;17.40;;
5026;SDS011;2532;52.480;13.354;2022-12-11T06:24:09;30.40;;;17.60;;
5026;SDS011;2532;52.480;13.354;2022-12-11T06:26:36;27.63;;;16.30;;
5026;SDS011;2532;52.480;13.354;2022-12-11T06:29:03;30.73;;;16.83;;
5026;SDS011;2532;52.480;13.354;2022-12-11T06:31:31;32.83;;;18.90;;
5026;SDS011;2532;52.480;13.354;2022-12-11T06:33:58;30.80;;;17.00;;
5026;SDS011;2532;52.480;13.354;2022-12-11T06:36:25;29.00;;;16.83;;
5026;SDS011;2532;52.480;13.354;2022-12-11T06:38:52;29.80;;;16.20;;
5026;SDS011;2532;52.480;13.354;2022-12-11T06:41:20;29.07;;;17.47;;
5026;SDS011;2532;52.480;13.354;2022-12-11T06:43:47;25.40;;;14.60;;
5026;SDS011;2532;52.480;13.354;2022-12-11T06:46:16;30.00;;;15.20;;
5026;SDS011;2532;52.480;13.354;2022-12-11T06:48:45;25.50;;;15.10;;
5026;SDS011;2532;52.480;13.354;2022-12-11T06:51:14;26.07;;;15.57;;
5026;SDS011;2532;52.480;13.354;2022-12-11T06:53:42;24.30;;;15.10;;
5026;SDS011;2532;52.480;13.354;2022-12-11T06:56:11;25.13;;;14.60;;
5026;SDS011;2532;52.480;13.354;2022-12-11T06:58:39;24.87;;;13.73;;
5026;SDS011;2532;52.480;13.354;2022-12-11T07:01:12;20.60;;;12.97;;
5026;SDS011;2532;52.480;13.354;2022-12-11T07:03:41;24.60;;;14.70;;
5026;SDS011;2532;52.480;13.354;2022-12-11T07:06:09;27.50;;;15.40;;
5026;SDS011;2532;52.480;13.354;2022-12-11T07:08:36;25.67;;;14.43;;
5026;SDS011;2532;52.480;13.354;2022-12-11T07:11:04;23.10;;;14.77;;
5026;SDS011;2532;52.480;13.354;2022-12-11T07:13:32;24.87;;;15.07;;
5026;SDS011;2532;52.480;13.354;2022-12-11T07:15:59;22.10;;;13.60;;
5026;SDS011;2532;52.480;13.354;2022-12-11T07:18:29;23.10;;;12.97;;
5026;SDS011;2532;52.480;13.354;2022-12-11T07:20:57;21.43;;;13.53;;
5026;SDS011;2532;52.480;13.354;2022-12-11T07:23:27;21.83;;;13.13;;
5026;SDS011;2532;52.480;13.354;2022-12-11T07:25:55;22.83;;;12.67;;
5026;SDS011;2532;52.480;13.354;2022-12-11T07:28:23;23.13;;;13.33;;
5026;SDS011;2532;52.480;13.354;2022-12-11T07:30:50;24.33;;;13.37;;
5026;SDS011;2532;52.480;13.354;2022-12-11T07:33:20;21.40;;;12.90;;
5026;SDS011;2532;52.480;13.354;2022-12-11T07:35:48;24.07;;;13.70;;
5026;SDS011;2532;52.480;13.354;2022-12-11T07:38:15;22.87;;;13.00;;
5026;SDS011;2532;52.480;13.354;2022-12-11T07:40:47;20.53;;;14.10;;
5026;SDS011;2532;52.480;13.354;2022-12-11T07:43:14;24.20;;;13.43;;
5026;SDS011;2532;52.480;13.354;2022-12-11T07:45:41;24.70;;;14.07;;
5026;SDS011;2532;52.480;13.354;2022-12-11T07:48:08;20.00;;;12.57;;
5026;SDS011;2532;52.480;13.354;2022-12-11T07:50:38;29.10;;;15.10;;
5026;SDS011;2532;52.480;13.354;2022-12-11T07:53:06;23.10;;;13.57;;
5026;SDS011;2532;52.480;13.354;2022-12-11T07:55:35;24.00;;;13.30;;
5026;SDS011;2532;52.480;13.354;2022-12-11T07:58:04;24.60;;;14.10;;
5026;SDS011;2532;52.480;13.354;2022-12-11T08:00:33;21.33;;;13.53;;
5026;SDS011;2532;52.480;13.354;2022-12-11T08:03:01;23.17;;;13.70;;
5026;SDS011;2532;52.480;13.354;2022-12-11T08:05:28;25.30;;;14.47;;
5026;SDS011;2532;52.480;13.354;2022-12-11T08:07:58;27.03;;;14.77;;
5026;SDS011;2532;52.480;13.354;2022-12-11T08:10:25;25.80;;;14.23;;
5026;SDS011;2532;52.480;13.354;2022-12-11T08:12:53;24.33;;;14.23;;
5026;SDS011;2532;52.480;13.354;2022-12-11T08:15:23;24.10;;;13.53;;
5026;SDS011;2532;52.480;13.354;2022-12-11T08:17:50;25.97;;;14.13;;
5026;SDS011;2532;52.480;13.354;2022-12-11T08:20:18;23.93;;;12.93;;
5026;SDS011;2532;52.480;13.354;2022-12-11T08:22:45;19.67;;;12.37;;
5026;SDS011;2532;52.480;13.354;2022-12-11T08:25:13;22.20;;;12.90;;
5026;SDS011;2532;52.480;13.354;2022-12-11T08:27:40;25.20;;;13.83;;
5026;SDS011;2532;52.480;13.354;2022-12-11T08:30:08;21.20;;;13.10;;
5026;SDS011;2532;52.480;13.354;2022-12-11T08:32:38;25.17;;;12.43;;
5026;SDS011;2532;52.480;13.354;2022-12-11T08:35:06;22.60;;;13.70;;
5026;SDS011;2532;52.480;13.354;2022-12-11T08:37:34;23.97;;;14.00;;
5026;SDS011;2532;52.480;13.354;2022-12-11T08:40:02;23.57;;;13.80;;
5026;SDS011;2532;52.480;13.354;2022-12-11T08:42:30;28.33;;;15.00;;
5026;SDS011;2532;52.480;13.354;2022-12-11T08:44:57;28.17;;;16.83;;
5026;SDS011;2532;52.480;13.354;2022-12-11T08:47:25;22.60;;;13.20;;
5026;SDS011;2532;52.480;13.354;2022-12-11T08:49:54;30.47;;;15.10;;
5026;SDS011;2532;52.480;13.354;2022-12-11T08:52:22;25.47;;;14.10;;
5026;SDS011;2532;52.480;13.354;2022-12-11T08:54:55;22.50;;;13.67;;
5026;SDS011;2532;52.480;13.354;2022-12-11T08:57:22;23.13;;;14.77;;
5026;SDS011;2532;52.480;13.354;2022-12-11T08:59:52;22.53;;;13.50;;
5026;SDS011;2532;52.480;13.354;2022-12-11T09:02:28;29.03;;;15.97;;
5026;SDS011;2532;52.480;13.354;2022-12-11T09:11:21;25.07;;;13.97;;
5026;SDS011;2532;52.480;13.354;2022-12-11T09:13:53;25.47;;;14.60;;
5026;SDS011;2532;52.480;13.354;2022-12-11T09:16:24;21.93;;;13.43;;
5026;SDS011;2532;52.480;13.354;2022-12-11T09:18:53;23.70;;;13.83;;
5026;SDS011;2532;52.480;13.354;2022-12-11T09:21:25;24.07;;;13.43;;
5026;SDS011;2532;52.480;13.354;2022-12-11T09:23:56;23.67;;;13.80;;
5026;SDS011;2532;52.480;13.354;2022-12-11T09:26:35;22.50;;;14.40;;
5026;SDS011;2532;52.480;13.354;2022-12-11T09:29:03;22.83;;;13.30;;
5026;SDS011;2532;52.480;13.354;2022-12-11T09:31:33;24.47;;;13.80;;
5026;SDS011;2532;52.480;13.354;2022-12-11T09:34:04;23.10;;;13.60;;
5026;SDS011;2532;52.480;13.354;2022-12-11T09:36:36;26.50;;;14.50;;
5026;SDS011;2532;52.480;13.354;2022-12-11T09:39:06;27.47;;;13.97;;
5026;SDS011;2532;52.480;13.354;2022-12-11T09:41:59;25.40;;;13.57;;
5026;SDS011;2532;52.480;13.354;2022-12-11T09:44:39;24.33;;;14.90;;
5026;SDS011;2532;52.480;13.354;2022-12-11T09:47:19;23.37;;;13.23;;
5026;SDS011;2532;52.480;13.354;2022-12-11T09:50:02;24.43;;;14.23;;
5026;SDS011;2532;52.480;13.354;2022-12-11T09:52:45;26.57;;;15.40;;
5026;SDS011;2532;52.480;13.354;2022-12-11T09:55:29;18.20;;;12.33;;
5026;SDS011;2532;52.480;13.354;2022-12-11T09:58:07;20.43;;;13.33;;
5026;SDS011;2532;52.480;13.354;2022-12-11T10:00:43;24.50;;;14.37;;
5026;SDS011;2532;52.480;13.354;2022-12-11T10:06:10;25.50;;;13.60;;
5026;SDS011;2532;52.480;13.354;2022-12-11T10:08:50;23.37;;;14.67;;
5026;SDS011;2532;52.480;13.354;2022-12-11T10:11:35;26.73;;;14.33;;
5026;SDS011;2532;52.480;13.354;2022-12-11T10:14:22;24.30;;;14.97;;
5026;SDS011;2532;52.480;13.354;2022-12-11T10:17:05;24.20;;;13.80;;
5026;SDS011;2532;52.480;13.354;2022-12-11T10:19:50;27.50;;;16.17;;
5026;SDS011;2532;52.480;13.354;2022-12-11T10:22:20;28.77;;;16.57;;
5026;SDS011;2532;52.480;13.354;2022-12-11T10:24:52;26.13;;;15.67;;
5026;SDS011;2532;52.480;13.354;2022-12-11T10:27:28;28.00;;;15.60;;
5026;SDS011;2532;52.480;13.354;2022-12-11T10:30:00;24.43;;;14.43;;
5026;SDS011;2532;52.480;13.354;2022-12-11T10:32:39;28.53;;;16.07;;
5026;SDS011;2532;52.480;13.354;2022-12-11T10:35:16;24.80;;;14.03;;
5026;SDS011;2532;52.480;13.354;2022-12-11T10:37:54;24.73;;;14.83;;
5026;SDS011;2532;52.480;13.354;2022-12-11T10:40:29;26.23;;;13.87;;
5026;SDS011;2532;52.480;13.354;2022-12-11T10:43:02;23.70;;;14.57;;
5026;SDS011;2532;52.480;13.354;2022-12-11T10:45:29;25.80;;;14.20;;
5026;SDS011;2532;52.480;13.354;2022-12-11T10:48:03;27.20;;;14.90;;
5026;SDS011;2532;52.480;13.354;2022-12-11T10:50:35;21.50;;;13.37;;
5026;SDS011;2532;52.480;13.354;2022-12-11T10:53:03;28.77;;;14.13;;
5026;SDS011;2532;52.480;13.354;2022-12-11T10:55:36;24.80;;;15.37;;
5026;SDS011;2532;52.480;13.354;2022-12-11T10:58:25;22.50;;;13.93;;
5026;SDS011;2532;52.480;13.354;2022-12-11T11:01:05;28.57;;;15.23;;
5026;SDS011;2532;52.480;13.354;2022-12-11T11:03:42;26.03;;;14.70;;
5026;SDS011;2532;52.480;13.354;2022-12-11T11:06:30;25.30;;;14.80;;
5026;SDS011;2532;52.480;13.354;2022-12-11T11:08:59;22.40;;;13.77;;
5026;SDS011;2532;52.480;13.354;2022-12-11T11:11:48;26.50;;;13.57;;
5026;SDS011;2532;52.480;13.354;2022-12-11T11:14:28;21.40;;;14.07;;
5026;SDS011;2532;52.480;13.354;2022-12-11T11:16:56;24.33;;;13.77;;
5026;SDS011;2532;52.480;13.354;2022-12-11T11:19:31;26.73;;;14.07;;
5026;SDS011;2532;52.480;13.354;2022-12-11T11:22:06;23.50;;;14.03;;
5026;SDS011;2532;52.480;13.354;2022-12-11T11:24:43;20.00;;;13.00;;
5026;SDS011;2532;52.480;13.354;2022-12-11T11:27:21;18.13;;;10.70;;
5026;SDS011;2532;52.480;13.354;2022-12-11T11:29:56;20.73;;;13.17;;
5026;SDS011;2532;52.480;13.354;2022-12-11T11:32:27;22.33;;;13.13;;
5026;SDS011;2532;52.480;13.354;2022-12-11T11:37:53;19.10;;;12.50;;
5026;SDS011;2532;52.480;13.354;2022-12-11T11:40:28;19.80;;;11.50;;
5026;SDS011;2532;52.480;13.354;2022-12-11T11:43:06;20.70;;;12.30;;
5026;SDS011;2532;52.480;13.354;2022-12-11T11:45:45;21.17;;;12.87;;
5026;SDS011;2532;52.480;13.354;2022-12-11T11:48:23;30.20;;;13.17;;
5026;SDS011;2532;52.480;13.354;2022-12-11T11:51:00;19.77;;;12.50;;
5026;SDS011;2532;52.480;13.354;2022-12-11T11:53:33;20.40;;;13.40;;
5026;SDS011;2532;52.480;13.354;2022-12-11T11:56:08;20.03;;;12.73;;
5026;SDS011;2532;52.480;13.354;2022-12-11T11:58:43;21.80;;;11.37;;
5026;SDS011;2532;52.480;13.354;2022-12-11T12:01:16;22.40;;;13.50;;
5026;SDS011;2532;52.480;13.354;2022-12-11T12:03:45;22.10;;;12.63;;
5026;SDS011;2532;52.480;13.354;2022-12-11T12:06:15;28.67;;;13.53;;
5026;SDS011;2532;52.480;13.354;2022-12-11T12:08:53;20.23;;;13.00;;
5026;SDS011;2532;52.480;13.354;2022-12-11T12:11:29;23.10;;;14.07;;
5026;SDS011;2532;52.480;13.354;2022-12-11T12:14:07;22.23;;;12.40;;
5026;SDS011;2532;52.480;13.354;2022-12-11T12:16:44;21.97;;;11.87;;
5026;SDS011;2532;52.480;13.354;2022-12-11T12:19:26;22.43;;;11.13;;
5026;SDS011;2532;52.480;13.354;2022-12-11T12:22:08;21.17;;;12.20;;
5026;SDS011;2532;52.480;13.354;2022-12-11T12:24:45;23.57;;;12.80;;
5026;SDS011;2532;52.480;13.354;2022-12-11T12:27:21;22.40;;;13.40;;
5026;SDS011;2532;52.480;13.354;2022-12-11T12:29:57;23.90;;;13.53;;
5026;SDS011;2532;52.480;13.354;2022-12-11T12:32:33;22.60;;;12.30;;
5026;SDS011;2532;52.480;13.354;2022-12-11T12:35:12;25.10;;;15.20;;
5026;SDS011;2532;52.480;13.354;2022-12-11T12:37:51;23.43;;;12.90;;
5026;SDS011;2532;52.480;13.354;2022-12-11T12:40:26;29.90;;;15.77;;
5026;SDS011;2532;52.480;13.354;2022-12-11T12:42:59;20.47;;;11.23;;
5026;SDS011;2532;52.480;13.354;2022-12-11T12:45:39;21.07;;;13.10;;
5026;SDS011;2532;52.480;13.354;2022-12-11T12:48:12;22.00;;;12.40;;
5026;SDS011;2532;52.480;13.354;2022-12-11T12:50:40;20.80;;;13.50;;
5026;SDS011;2532;52.480;13.354;2022-12-11T12:53:09;21.00;;;12.93;;
5026;SDS011;2532;52.480;13.354;2022-12-11T12:55:42;28.63;;;14.40;;
5026;SDS011;2532;52.480;13.354;2022-12-11T12:58:22;21.97;;;12.87;;
5026;SDS011;2532;52.480;13.354;2022-12-11T13:00:51;23.80;;;13.73;;
5026;SDS011;2532;52.480;13.354;2022-12-11T13:03:21;21.47;;;11.90;;
5026;SDS011;2532;52.480;13.354;2022-12-11T13:05:55;20.20;;;12.37;;
5026;SDS011;2532;52.480;13.354;2022-12-11T13:08:27;24.97;;;12.23;;
5026;SDS011;2532;52.480;13.354;2022-12-11T13:11:00;25.83;;;14.10;;
5026;SDS011;2532;52.480;13.354;2022-12-11T13:13:31;25.67;;;13.50;;
5026;SDS011;2532;52.480;13.354;2022-12-11T13:16:07;22.00;;;12.40;;
5026;SDS011;2532;52.480;13.354;2022-12-11T13:18:54;25.43;;;15.80;;
5026;SDS011;2532;52.480;13.354;2022-12-11T13:21:25;22.30;;;11.30;;
5026;SDS011;2532;52.480;13.354;2022-12-11T13:23:55;25.63;;;13.60;;
5026;SDS011;2532;52.480;13.354;2022-12-11T13:26:39;23.93;;;13.97;;
5026;SDS011;2532;52.480;13.354;2022-12-11T13:29:26;24.03;;;11.60;;
5026;SDS011;2532;52.480;13.354;2022-12-11T13:31:55;19.90;;;12.80;;
5026;SDS011;2532;52.480;13.354;2022-12-11T13:34:24;24.40;;;13.10;;
5026;SDS011;2532;52.480;13.354;2022-12-11T13:36:56;27.00;;;14.53;;
5026;SDS011;2532;52.480;13.354;2022-12-11T13:39:25;26.30;;;15.77;;
5026;SDS011;2532;52.480;13.354;2022-12-11T13:41:55;22.50;;;13.37;;
5026;SDS011;2532;52.480;13.354;2022-12-11T13:44:25;22.37;;;13.40;;
5026;SDS011;2532;52.480;13.354;2022-12-11T13:46:55;20.37;;;13.00;;
5026;SDS011;2532;52.480;13.354;2022-12-11T13:49:27;22.90;;;13.23;;
5026;SDS011;2532;52.480;13.354;2022-12-11T13:51:59;25.83;;;13.80;;
5026;SDS011;2532;52.480;13.354;2022-12-11T13:54:27;24.67;;;14.10;;
5026;SDS011;2532;52.480;13.354;2022-12-11T13:57:00;23.63;;;13.67;;
5026;SDS011;2532;52.480;13.354;2022-12-11T13:59:30;21.20;;;13.00;;
5026;SDS011;2532;52.480;13.354;2022-12-11T14:02:00;25.10;;;14.03;;
5026;SDS011;2532;52.480;13.354;2022-12-11T14:04:33;21.67;;;13.23;;
5026;SDS011;2532;52.480;13.354;2022-12-11T14:07:00;25.17;;;11.50;;
5026;SDS011;2532;52.480;13.354;2022-12-11T14:09:31;22.13;;;13.10;;
5026;SDS011;2532;52.480;13.354;2022-12-11T14:11:58;28.37;;;13.97;;
5026;SDS011;2532;52.480;13.354;2022-12-11T14:14:27;21.60;;;13.00;;
5026;SDS011;2532;52.480;13.354;2022-12-11T14:17:04;26.07;;;13.47;;
5026;SDS011;2532;52.480;13.354;2022-12-11T14:19:33;21.97;;;12.70;;
5026;SDS011;2532;52.480;13.354;2022-12-11T14:22:00;20.73;;;11.77;;
5026;SDS011;2532;52.480;13.354;2022-12-11T14:24:29;23.00;;;12.53;;
5026;SDS011;2532;52.480;13.354;2022-12-11T14:26:56;20.33;;;9.77;;
5026;SDS011;2532;52.480;13.354;2022-12-11T14:29:25;22.77;;;12.27;;
5026;SDS011;2532;52.480;13.354;2022-12-11T14:31:54;23.87;;;11.63;;
5026;SDS011;2532;52.480;13.354;2022-12-11T14:34:26;22.43;;;11.47;;
5026;SDS011;2532;52.480;13.354;2022-12-11T14:37:00;21.97;;;13.47;;
5026;SDS011;2532;52.480;13.354;2022-12-11T14:39:31;34.27;;;12.67;;
5026;SDS011;2532;52.480;13.354;2022-12-11T14:42:01;23.60;;;13.23;;
5026;SDS011;2532;52.480;13.354;2022-12-11T14:44:32;21.87;;;10.90;;
5026;SDS011;2532;52.480;13.354;2022-12-11T14:47:03;26.47;;;14.50;;
5026;SDS011;2532;52.480;13.354;2022-12-11T14:49:38;23.93;;;13.50;;
5026;SDS011;2532;52.480;13.354;2022-12-11T14:52:14;23.47;;;13.20;;
5026;SDS011;2532;52.480;13.354;2022-12-11T14:54:44;20.90;;;11.10;;
5026;SDS011;2532;52.480;13.354;2022-12-11T14:57:17;21.80;;;12.37;;
5026;SDS011;2532;52.480;13.354;2022-12-11T14:59:47;19.43;;;12.47;;
5026;SDS011;2532;52.480;13.354;2022-12-11T15:02:23;22.77;;;12.80;;
5026;SDS011;2532;52.480;13.354;2022-12-11T15:04:58;23.87;;;13.93;;
5026;SDS011;2532;52.480;13.354;2022-12-11T15:07:30;28.30;;;13.80;;
5026;SDS011;2532;52.480;13.354;2022-12-11T15:09:58;21.40;;;11.00;;
5026;SDS011;2532;52.480;13.354;2022-12-11T15:12:24;21.97;;;13.77;;